Peterson, Indiana
Current Conditions -  °F | °C
As of 11:54 AM on Wednesday 26 Nov 2014 (Local Time) from KFWA Reporting Station
Light Snow Light Snow  
Wind Chill: 23°   Ceiling: 1800
Heat Index: 28°   Visibility: 9mi
Dew Point: 21°   Wind: 5mph
Humidity: 75%   Direction: 90°E
Pressure: 30.14"   Gusts: NA
Location:  40.8317°N, 84.9398°W
Report Text: KFWA 261654Z 09004KT 9SM -SN OVC018 M02/M06 A3014 RMK AO2 SNB47 SLP217 P0000 T10221061
Loading
Personal Weather Stations






























Interactive Weather Map New forecast layout! Learn more

10-Day Weather Forecast

Advertisements
Track Severe Weather on mobile